sensor_id;sensor_type;location;lat;lon;timestamp;temperature;humidity
55828;DHT22;41758;51.992;5.890;2023-05-18T00:00:35;13.30;53.50
55828;DHT22;41758;51.992;5.890;2023-05-18T00:03:01;13.30;53.50
55828;DHT22;41758;51.992;5.890;2023-05-18T00:05:27;13.30;53.60
55828;DHT22;41758;51.992;5.890;2023-05-18T00:07:59;13.30;53.60
55828;DHT22;41758;51.992;5.890;2023-05-18T00:10:25;13.30;53.60
55828;DHT22;41758;51.992;5.890;2023-05-18T00:12:51;13.30;53.70
55828;DHT22;41758;51.992;5.890;2023-05-18T00:15:16;13.20;53.70
55828;DHT22;41758;51.992;5.890;2023-05-18T00:17:42;13.20;53.70
55828;DHT22;41758;51.992;5.890;2023-05-18T00:20:08;13.20;53.70
55828;DHT22;41758;51.992;5.890;2023-05-18T00:22:34;13.20;53.70
55828;DHT22;41758;51.992;5.890;2023-05-18T00:25:00;13.10;53.80
55828;DHT22;41758;51.992;5.890;2023-05-18T00:27:25;13.10;53.80
55828;DHT22;41758;51.992;5.890;2023-05-18T00:29:52;13.10;53.90
55828;DHT22;41758;51.992;5.890;2023-05-18T00:32:18;13.10;54.00
55828;DHT22;41758;51.992;5.890;2023-05-18T00:34:43;13.10;54.10
55828;DHT22;41758;51.992;5.890;2023-05-18T00:37:09;13.00;54.10
55828;DHT22;41758;51.992;5.890;2023-05-18T00:39:35;13.00;54.20
55828;DHT22;41758;51.992;5.890;2023-05-18T00:42:01;13.00;54.30
55828;DHT22;41758;51.992;5.890;2023-05-18T00:44:27;13.00;54.40
55828;DHT22;41758;51.992;5.890;2023-05-18T00:46:53;13.00;54.40
55828;DHT22;41758;51.992;5.890;2023-05-18T00:49:18;13.00;54.40
55828;DHT22;41758;51.992;5.890;2023-05-18T00:51:44;13.00;54.50
55828;DHT22;41758;51.992;5.890;2023-05-18T00:54:11;13.00;54.50
55828;DHT22;41758;51.992;5.890;2023-05-18T00:56:37;13.00;54.50
55828;DHT22;41758;51.992;5.890;2023-05-18T00:59:06;13.00;54.50
55828;DHT22;41758;51.992;5.890;2023-05-18T01:01:34;13.00;54.60
55828;DHT22;41758;51.992;5.890;2023-05-18T01:04:02;13.00;54.60
55828;DHT22;41758;51.992;5.890;2023-05-18T01:06:31;13.00;54.60
55828;DHT22;41758;51.992;5.890;2023-05-18T01:09:01;12.90;54.60
55828;DHT22;41758;51.992;5.890;2023-05-18T01:17:42;12.90;54.70
55828;DHT22;41758;51.992;5.890;2023-05-18T01:28:24;12.90;54.90
55828;DHT22;41758;51.992;5.890;2023-05-18T01:30:52;12.80;55.00
55828;DHT22;41758;51.992;5.890;2023-05-18T01:33:18;12.80;55.00
55828;DHT22;41758;51.992;5.890;2023-05-18T01:35:44;12.80;55.00
55828;DHT22;41758;51.992;5.890;2023-05-18T01:38:17;12.80;55.00
55828;DHT22;41758;51.992;5.890;2023-05-18T01:41:23;12.80;55.00
55828;DHT22;41758;51.992;5.890;2023-05-18T01:44:27;12.80;54.90
55828;DHT22;41758;51.992;5.890;2023-05-18T01:46:58;12.80;54.90
55828;DHT22;41758;51.992;5.890;2023-05-18T01:49:31;12.80;55.10
55828;DHT22;41758;51.992;5.890;2023-05-18T01:52:03;12.70;55.10
55828;DHT22;41758;51.992;5.890;2023-05-18T01:54:31;12.70;55.20
55828;DHT22;41758;51.992;5.890;2023-05-18T01:56:58;12.70;55.20
55828;DHT22;41758;51.992;5.890;2023-05-18T01:59:24;12.70;55.20
55828;DHT22;41758;51.992;5.890;2023-05-18T02:01:50;12.70;55.20
55828;DHT22;41758;51.992;5.890;2023-05-18T02:04:16;12.70;55.20
55828;DHT22;41758;51.992;5.890;2023-05-18T02:06:42;12.70;55.20
55828;DHT22;41758;51.992;5.890;2023-05-18T02:09:08;12.70;55.20
55828;DHT22;41758;51.992;5.890;2023-05-18T02:11:34;12.70;55.30
55828;DHT22;41758;51.992;5.890;2023-05-18T02:14:00;12.60;55.30
55828;DHT22;41758;51.992;5.890;2023-05-18T02:16:26;12.60;55.30
55828;DHT22;41758;51.992;5.890;2023-05-18T02:18:52;12.60;55.30
55828;DHT22;41758;51.992;5.890;2023-05-18T02:21:18;12.60;55.30
55828;DHT22;41758;51.992;5.890;2023-05-18T02:23:43;12.60;55.40
55828;DHT22;41758;51.992;5.890;2023-05-18T02:26:09;12.60;55.40
55828;DHT22;41758;51.992;5.890;2023-05-18T02:28:35;12.60;55.40
55828;DHT22;41758;51.992;5.890;2023-05-18T02:31:08;12.60;55.40
55828;DHT22;41758;51.992;5.890;2023-05-18T02:33:38;12.60;55.50
55828;DHT22;41758;51.992;5.890;2023-05-18T02:36:12;12.60;55.50
55828;DHT22;41758;51.992;5.890;2023-05-18T02:38:42;12.60;55.50
55828;DHT22;41758;51.992;5.890;2023-05-18T02:41:08;12.60;55.50
55828;DHT22;41758;51.992;5.890;2023-05-18T02:43:35;12.60;55.50
55828;DHT22;41758;51.992;5.890;2023-05-18T02:46:01;12.50;55.60
55828;DHT22;41758;51.992;5.890;2023-05-18T02:48:28;12.50;55.60
55828;DHT22;41758;51.992;5.890;2023-05-18T02:50:54;12.50;55.60
55828;DHT22;41758;51.992;5.890;2023-05-18T02:53:20;12.50;55.60
55828;DHT22;41758;51.992;5.890;2023-05-18T02:55:47;12.50;55.60
55828;DHT22;41758;51.992;5.890;2023-05-18T02:58:17;12.50;55.60
55828;DHT22;41758;51.992;5.890;2023-05-18T03:01:06;12.50;55.60
55828;DHT22;41758;51.992;5.890;2023-05-18T03:03:38;12.50;55.70
55828;DHT22;41758;51.992;5.890;2023-05-18T03:06:06;12.50;55.70
55828;DHT22;41758;51.992;5.890;2023-05-18T03:08:33;12.40;55.70
55828;DHT22;41758;51.992;5.890;2023-05-18T03:10:59;12.50;55.70
55828;DHT22;41758;51.992;5.890;2023-05-18T03:13:24;12.50;55.70
55828;DHT22;41758;51.992;5.890;2023-05-18T03:15:51;12.50;55.70
55828;DHT22;41758;51.992;5.890;2023-05-18T03:18:17;12.50;55.70
55828;DHT22;41758;51.992;5.890;2023-05-18T03:20:44;12.40;55.70
55828;DHT22;41758;51.992;5.890;2023-05-18T03:23:10;12.40;55.70
55828;DHT22;41758;51.992;5.890;2023-05-18T03:25:36;12.40;55.80
55828;DHT22;41758;51.992;5.890;2023-05-18T03:28:05;12.40;55.80
55828;DHT22;41758;51.992;5.890;2023-05-18T03:30:31;12.40;55.80
55828;DHT22;41758;51.992;5.890;2023-05-18T03:32:59;12.40;55.80
55828;DHT22;41758;51.992;5.890;2023-05-18T03:35:24;12.40;55.80
55828;DHT22;41758;51.992;5.890;2023-05-18T03:37:50;12.40;55.80
55828;DHT22;41758;51.992;5.890;2023-05-18T03:40:16;12.40;55.80
55828;DHT22;41758;51.992;5.890;2023-05-18T03:42:44;12.40;55.80
55828;DHT22;41758;51.992;5.890;2023-05-18T03:45:11;12.40;55.80
55828;DHT22;41758;51.992;5.890;2023-05-18T03:47:37;12.40;55.80
55828;DHT22;41758;51.992;5.890;2023-05-18T03:50:04;12.40;55.80
55828;DHT22;41758;51.992;5.890;2023-05-18T03:52:32;12.40;55.80
55828;DHT22;41758;51.992;5.890;2023-05-18T03:55:00;12.40;55.80
55828;DHT22;41758;51.992;5.890;2023-05-18T03:57:31;12.40;55.90
55828;DHT22;41758;51.992;5.890;2023-05-18T03:59:59;12.40;55.90
55828;DHT22;41758;51.992;5.890;2023-05-18T04:02:25;12.40;55.90
55828;DHT22;41758;51.992;5.890;2023-05-18T04:04:51;12.30;55.90
55828;DHT22;41758;51.992;5.890;2023-05-18T04:07:19;12.30;55.90
55828;DHT22;41758;51.992;5.890;2023-05-18T04:09:49;12.40;55.90
55828;DHT22;41758;51.992;5.890;2023-05-18T04:12:16;12.30;55.90
55828;DHT22;41758;51.992;5.890;2023-05-18T04:14:42;12.40;55.90
55828;DHT22;41758;51.992;5.890;2023-05-18T04:17:08;12.30;56.00
55828;DHT22;41758;51.992;5.890;2023-05-18T04:19:35;12.30;56.10
55828;DHT22;41758;51.992;5.890;2023-05-18T04:22:02;12.30;56.10
55828;DHT22;41758;51.992;5.890;2023-05-18T04:24:32;12.30;56.10
55828;DHT22;41758;51.992;5.890;2023-05-18T04:27:01;12.40;56.10
55828;DHT22;41758;51.992;5.890;2023-05-18T04:29:28;12.40;56.10
55828;DHT22;41758;51.992;5.890;2023-05-18T04:31:54;12.40;56.10
55828;DHT22;41758;51.992;5.890;2023-05-18T04:34:29;12.40;56.20
55828;DHT22;41758;51.992;5.890;2023-05-18T04:36:56;12.40;56.20
55828;DHT22;41758;51.992;5.890;2023-05-18T04:39:25;12.40;56.30
55828;DHT22;41758;51.992;5.890;2023-05-18T04:41:52;12.40;56.20
55828;DHT22;41758;51.992;5.890;2023-05-18T04:44:27;12.50;56.30
55828;DHT22;41758;51.992;5.890;2023-05-18T04:46:54;12.50;56.30
55828;DHT22;41758;51.992;5.890;2023-05-18T04:49:21;12.50;56.40
55828;DHT22;41758;51.992;5.890;2023-05-18T04:51:53;12.60;56.30
55828;DHT22;41758;51.992;5.890;2023-05-18T04:54:22;12.60;56.30
55828;DHT22;41758;51.992;5.890;2023-05-18T04:56:49;12.70;56.30
55828;DHT22;41758;51.992;5.890;2023-05-18T04:59:16;12.70;56.30
55828;DHT22;41758;51.992;5.890;2023-05-18T05:01:42;12.80;56.40
55828;DHT22;41758;51.992;5.890;2023-05-18T05:04:10;12.80;56.30
55828;DHT22;41758;51.992;5.890;2023-05-18T05:06:35;12.80;56.30
55828;DHT22;41758;51.992;5.890;2023-05-18T05:09:02;12.90;56.40
55828;DHT22;41758;51.992;5.890;2023-05-18T05:11:28;12.90;56.40
55828;DHT22;41758;51.992;5.890;2023-05-18T05:13:53;13.00;56.40
55828;DHT22;41758;51.992;5.890;2023-05-18T05:16:19;13.10;56.40
55828;DHT22;41758;51.992;5.890;2023-05-18T05:18:45;13.10;56.40
55828;DHT22;41758;51.992;5.890;2023-05-18T05:21:10;13.10;56.40
55828;DHT22;41758;51.992;5.890;2023-05-18T05:23:36;13.20;56.40
55828;DHT22;41758;51.992;5.890;2023-05-18T05:26:02;13.30;56.30
55828;DHT22;41758;51.992;5.890;2023-05-18T05:28:28;13.30;56.30
55828;DHT22;41758;51.992;5.890;2023-05-18T05:30:54;13.30;56.30
55828;DHT22;41758;51.992;5.890;2023-05-18T05:33:20;13.40;56.30
55828;DHT22;41758;51.992;5.890;2023-05-18T05:35:46;13.40;56.20
55828;DHT22;41758;51.992;5.890;2023-05-18T05:38:12;13.40;56.20
55828;DHT22;41758;51.992;5.890;2023-05-18T05:40:37;13.50;56.20
55828;DHT22;41758;51.992;5.890;2023-05-18T05:43:04;13.60;56.20
55828;DHT22;41758;51.992;5.890;2023-05-18T05:45:31;13.60;56.20
55828;DHT22;41758;51.992;5.890;2023-05-18T05:48:00;13.60;56.20
55828;DHT22;41758;51.992;5.890;2023-05-18T05:50:26;13.60;56.20
55828;DHT22;41758;51.992;5.890;2023-05-18T05:52:55;13.70;56.10
55828;DHT22;41758;51.992;5.890;2023-05-18T05:55:23;13.70;56.10
55828;DHT22;41758;51.992;5.890;2023-05-18T05:57:50;13.70;56.00
55828;DHT22;41758;51.992;5.890;2023-05-18T06:00:16;13.70;56.10
55828;DHT22;41758;51.992;5.890;2023-05-18T06:02:55;13.70;56.10
55828;DHT22;41758;51.992;5.890;2023-05-18T06:05:28;13.70;56.00
55828;DHT22;41758;51.992;5.890;2023-05-18T06:07:55;13.80;56.10
55828;DHT22;41758;51.992;5.890;2023-05-18T06:10:21;13.80;55.90
55828;DHT22;41758;51.992;5.890;2023-05-18T06:12:47;13.80;56.00
55828;DHT22;41758;51.992;5.890;2023-05-18T06:15:13;13.80;56.00
55828;DHT22;41758;51.992;5.890;2023-05-18T06:17:39;13.90;56.00
55828;DHT22;41758;51.992;5.890;2023-05-18T06:20:06;13.90;56.00
55828;DHT22;41758;51.992;5.890;2023-05-18T06:22:32;13.90;56.00
55828;DHT22;41758;51.992;5.890;2023-05-18T06:25:15;14.00;56.00
55828;DHT22;41758;51.992;5.890;2023-05-18T06:28:00;14.00;55.90
55828;DHT22;41758;51.992;5.890;2023-05-18T06:30:39;14.00;55.90
55828;DHT22;41758;51.992;5.890;2023-05-18T06:33:19;14.10;55.90
55828;DHT22;41758;51.992;5.890;2023-05-18T06:35:48;14.10;55.70
55828;DHT22;41758;51.992;5.890;2023-05-18T06:38:13;14.10;55.70
55828;DHT22;41758;51.992;5.890;2023-05-18T06:40:39;14.10;55.70
55828;DHT22;41758;51.992;5.890;2023-05-18T06:43:05;14.10;55.70
55828;DHT22;41758;51.992;5.890;2023-05-18T06:45:41;14.10;55.70
55828;DHT22;41758;51.992;5.890;2023-05-18T06:48:16;14.20;55.70
55828;DHT22;41758;51.992;5.890;2023-05-18T06:50:42;14.20;55.60
55828;DHT22;41758;51.992;5.890;2023-05-18T06:53:08;14.30;55.70
55828;DHT22;41758;51.992;5.890;2023-05-18T06:55:34;14.30;55.80
55828;DHT22;41758;51.992;5.890;2023-05-18T06:58:00;14.40;55.70
55828;DHT22;41758;51.992;5.890;2023-05-18T07:00:27;14.40;55.70
55828;DHT22;41758;51.992;5.890;2023-05-18T07:02:53;14.50;55.70
55828;DHT22;41758;51.992;5.890;2023-05-18T07:05:18;14.50;55.70
55828;DHT22;41758;51.992;5.890;2023-05-18T07:07:44;14.60;55.70
55828;DHT22;41758;51.992;5.890;2023-05-18T07:10:10;14.70;55.60
55828;DHT22;41758;51.992;5.890;2023-05-18T07:12:36;14.70;55.60
55828;DHT22;41758;51.992;5.890;2023-05-18T07:15:01;14.70;55.50
55828;DHT22;41758;51.992;5.890;2023-05-18T07:17:28;14.80;55.40
55828;DHT22;41758;51.992;5.890;2023-05-18T07:19:54;14.80;55.40
55828;DHT22;41758;51.992;5.890;2023-05-18T07:22:20;14.80;55.30
55828;DHT22;41758;51.992;5.890;2023-05-18T07:24:46;14.90;55.30
55828;DHT22;41758;51.992;5.890;2023-05-18T07:27:11;14.90;55.30
55828;DHT22;41758;51.992;5.890;2023-05-18T07:29:37;14.90;55.20
55828;DHT22;41758;51.992;5.890;2023-05-18T07:32:03;15.00;55.20
55828;DHT22;41758;51.992;5.890;2023-05-18T07:34:29;15.00;55.20
55828;DHT22;41758;51.992;5.890;2023-05-18T07:36:55;15.10;54.80
55828;DHT22;41758;51.992;5.890;2023-05-18T07:39:22;15.10;55.00
55828;DHT22;41758;51.992;5.890;2023-05-18T07:41:53;15.20;55.00
55828;DHT22;41758;51.992;5.890;2023-05-18T07:44:19;15.20;55.10
55828;DHT22;41758;51.992;5.890;2023-05-18T07:46:45;15.30;55.00
55828;DHT22;41758;51.992;5.890;2023-05-18T07:49:10;15.40;54.90
55828;DHT22;41758;51.992;5.890;2023-05-18T07:51:36;15.40;54.90
55828;DHT22;41758;51.992;5.890;2023-05-18T07:54:02;15.60;54.90
55828;DHT22;41758;51.992;5.890;2023-05-18T07:56:28;15.60;54.90
55828;DHT22;41758;51.992;5.890;2023-05-18T07:58:53;15.70;54.90
55828;DHT22;41758;51.992;5.890;2023-05-18T08:01:19;15.80;54.70
55828;DHT22;41758;51.992;5.890;2023-05-18T08:03:46;15.90;54.70
55828;DHT22;41758;51.992;5.890;2023-05-18T08:06:12;15.90;54.60
55828;DHT22;41758;51.992;5.890;2023-05-18T08:08:37;16.00;54.60
55828;DHT22;41758;51.992;5.890;2023-05-18T08:11:04;16.10;54.40
55828;DHT22;41758;51.992;5.890;2023-05-18T08:13:30;16.20;54.50
55828;DHT22;41758;51.992;5.890;2023-05-18T08:15:55;16.30;54.20
55828;DHT22;41758;51.992;5.890;2023-05-18T08:18:21;16.40;54.20
55828;DHT22;41758;51.992;5.890;2023-05-18T08:20:47;16.40;54.20
55828;DHT22;41758;51.992;5.890;2023-05-18T08:23:14;16.60;54.20
55828;DHT22;41758;51.992;5.890;2023-05-18T08:25:40;16.70;54.20
55828;DHT22;41758;51.992;5.890;2023-05-18T08:28:06;16.80;54.00
55828;DHT22;41758;51.992;5.890;2023-05-18T08:30:32;16.80;53.80
55828;DHT22;41758;51.992;5.890;2023-05-18T08:32:57;16.90;53.60
55828;DHT22;41758;51.992;5.890;2023-05-18T08:35:23;16.90;53.50
55828;DHT22;41758;51.992;5.890;2023-05-18T08:37:49;17.00;53.50
55828;DHT22;41758;51.992;5.890;2023-05-18T08:40:15;17.00;53.40
55828;DHT22;41758;51.992;5.890;2023-05-18T08:42:50;17.00;53.30
55828;DHT22;41758;51.992;5.890;2023-05-18T08:45:35;17.10;53.20
55828;DHT22;41758;51.992;5.890;2023-05-18T08:48:04;17.10;53.20
55828;DHT22;41758;51.992;5.890;2023-05-18T08:50:31;17.10;53.20
55828;DHT22;41758;51.992;5.890;2023-05-18T08:53:00;17.20;53.10
55828;DHT22;41758;51.992;5.890;2023-05-18T08:55:27;17.20;53.10
55828;DHT22;41758;51.992;5.890;2023-05-18T08:57:56;17.20;53.00
55828;DHT22;41758;51.992;5.890;2023-05-18T09:00:22;17.20;53.00
55828;DHT22;41758;51.992;5.890;2023-05-18T09:02:51;17.20;53.00
55828;DHT22;41758;51.992;5.890;2023-05-18T09:05:17;17.30;52.90
55828;DHT22;41758;51.992;5.890;2023-05-18T09:07:45;17.20;52.90
55828;DHT22;41758;51.992;5.890;2023-05-18T09:10:12;17.30;52.90
55828;DHT22;41758;51.992;5.890;2023-05-18T09:12:41;17.30;52.90
55828;DHT22;41758;51.992;5.890;2023-05-18T09:15:11;17.30;52.90
55828;DHT22;41758;51.992;5.890;2023-05-18T09:17:37;17.30;52.80
55828;DHT22;41758;51.992;5.890;2023-05-18T09:20:03;17.30;52.80
55828;DHT22;41758;51.992;5.890;2023-05-18T09:22:32;17.40;52.60
55828;DHT22;41758;51.992;5.890;2023-05-18T09:25:03;17.40;52.30
55828;DHT22;41758;51.992;5.890;2023-05-18T09:27:30;17.50;52.40
55828;DHT22;41758;51.992;5.890;2023-05-18T09:29:57;17.60;52.50
55828;DHT22;41758;51.992;5.890;2023-05-18T09:32:24;17.60;52.50
55828;DHT22;41758;51.992;5.890;2023-05-18T09:34:50;17.70;52.40
55828;DHT22;41758;51.992;5.890;2023-05-18T09:37:17;17.70;51.70
55828;DHT22;41758;51.992;5.890;2023-05-18T09:39:43;17.70;51.80
55828;DHT22;41758;51.992;5.890;2023-05-18T09:42:09;17.80;51.90
55828;DHT22;41758;51.992;5.890;2023-05-18T09:44:35;17.80;51.80
55828;DHT22;41758;51.992;5.890;2023-05-18T09:47:05;17.80;51.70
55828;DHT22;41758;51.992;5.890;2023-05-18T09:49:32;17.80;51.60
55828;DHT22;41758;51.992;5.890;2023-05-18T09:51:57;17.80;51.60
55828;DHT22;41758;51.992;5.890;2023-05-18T09:54:26;17.80;51.60
55828;DHT22;41758;51.992;5.890;2023-05-18T09:56:52;17.90;51.60
55828;DHT22;41758;51.992;5.890;2023-05-18T09:59:17;17.90;51.60
55828;DHT22;41758;51.992;5.890;2023-05-18T10:02:00;17.90;51.50
55828;DHT22;41758;51.992;5.890;2023-05-18T10:04:40;17.90;51.30
55828;DHT22;41758;51.992;5.890;2023-05-18T10:07:14;17.90;51.30
55828;DHT22;41758;51.992;5.890;2023-05-18T10:09:41;17.90;51.40
55828;DHT22;41758;51.992;5.890;2023-05-18T10:12:12;18.00;51.30
55828;DHT22;41758;51.992;5.890;2023-05-18T10:14:40;18.00;51.20
55828;DHT22;41758;51.992;5.890;2023-05-18T10:17:06;18.10;51.30
55828;DHT22;41758;51.992;5.890;2023-05-18T10:19:34;18.10;51.30
55828;DHT22;41758;51.992;5.890;2023-05-18T10:22:04;18.20;51.10
55828;DHT22;41758;51.992;5.890;2023-05-18T10:24:35;18.30;51.00
55828;DHT22;41758;51.992;5.890;2023-05-18T10:27:06;18.30;51.00
55828;DHT22;41758;51.992;5.890;2023-05-18T10:29:36;18.40;50.90
55828;DHT22;41758;51.992;5.890;2023-05-18T10:32:05;18.40;50.60
55828;DHT22;41758;51.992;5.890;2023-05-18T10:34:32;18.50;50.60
55828;DHT22;41758;51.992;5.890;2023-05-18T10:37:00;18.50;50.60
55828;DHT22;41758;51.992;5.890;2023-05-18T10:39:30;18.60;50.40
55828;DHT22;41758;51.992;5.890;2023-05-18T10:41:58;18.50;49.40
55828;DHT22;41758;51.992;5.890;2023-05-18T10:44:25;18.60;49.80
55828;DHT22;41758;51.992;5.890;2023-05-18T10:46:52;18.60;49.80
55828;DHT22;41758;51.992;5.890;2023-05-18T10:49:20;18.70;49.60
55828;DHT22;41758;51.992;5.890;2023-05-18T10:51:48;18.80;49.70
55828;DHT22;41758;51.992;5.890;2023-05-18T10:54:17;18.80;49.60
55828;DHT22;41758;51.992;5.890;2023-05-18T10:56:46;18.80;49.60
55828;DHT22;41758;51.992;5.890;2023-05-18T10:59:13;18.90;49.60
55828;DHT22;41758;51.992;5.890;2023-05-18T11:01:41;19.00;49.60
55828;DHT22;41758;51.992;5.890;2023-05-18T11:04:07;19.10;49.50
55828;DHT22;41758;51.992;5.890;2023-05-18T11:06:33;19.20;49.50
55828;DHT22;41758;51.992;5.890;2023-05-18T11:09:00;19.30;49.40
55828;DHT22;41758;51.992;5.890;2023-05-18T11:11:29;19.30;49.30
55828;DHT22;41758;51.992;5.890;2023-05-18T11:14:00;19.40;49.30
55828;DHT22;41758;51.992;5.890;2023-05-18T11:16:34;19.50;49.20
55828;DHT22;41758;51.992;5.890;2023-05-18T11:19:07;19.70;49.10
55828;DHT22;41758;51.992;5.890;2023-05-18T11:24:16;19.90;48.70
55828;DHT22;41758;51.992;5.890;2023-05-18T11:26:45;20.10;48.40
55828;DHT22;41758;51.992;5.890;2023-05-18T11:31:59;20.30;48.20
55828;DHT22;41758;51.992;5.890;2023-05-18T11:34:37;20.40;48.20
55828;DHT22;41758;51.992;5.890;2023-05-18T11:37:04;20.50;47.90
55828;DHT22;41758;51.992;5.890;2023-05-18T11:39:31;20.70;48.00
55828;DHT22;41758;51.992;5.890;2023-05-18T11:41:59;20.80;47.90
55828;DHT22;41758;51.992;5.890;2023-05-18T11:44:27;20.90;47.80
55828;DHT22;41758;51.992;5.890;2023-05-18T11:47:03;21.20;47.50
55828;DHT22;41758;51.992;5.890;2023-05-18T11:49:35;21.30;46.70
55828;DHT22;41758;51.992;5.890;2023-05-18T11:52:18;21.30;45.10
55828;DHT22;41758;51.992;5.890;2023-05-18T11:54:55;21.40;45.30
55828;DHT22;41758;51.992;5.890;2023-05-18T11:59:58;21.60;45.20
55828;DHT22;41758;51.992;5.890;2023-05-18T12:02:26;21.70;45.30
55828;DHT22;41758;51.992;5.890;2023-05-18T12:04:53;21.80;45.40
55828;DHT22;41758;51.992;5.890;2023-05-18T12:07:19;21.80;45.40
55828;DHT22;41758;51.992;5.890;2023-05-18T12:09:47;21.90;45.20
55828;DHT22;41758;51.992;5.890;2023-05-18T12:12:15;22.00;45.10
55828;DHT22;41758;51.992;5.890;2023-05-18T12:14:49;21.90;45.00
55828;DHT22;41758;51.992;5.890;2023-05-18T12:17:17;21.90;44.90
55828;DHT22;41758;51.992;5.890;2023-05-18T12:19:45;21.80;44.70
55828;DHT22;41758;51.992;5.890;2023-05-18T12:22:11;21.80;44.80
55828;DHT22;41758;51.992;5.890;2023-05-18T12:24:41;21.70;44.90
55828;DHT22;41758;51.992;5.890;2023-05-18T12:27:08;21.60;44.80
55828;DHT22;41758;51.992;5.890;2023-05-18T12:29:39;21.60;44.80
55828;DHT22;41758;51.992;5.890;2023-05-18T12:32:10;21.60;44.70
55828;DHT22;41758;51.992;5.890;2023-05-18T12:34:37;21.60;44.70
55828;DHT22;41758;51.992;5.890;2023-05-18T12:37:05;21.50;44.50
55828;DHT22;41758;51.992;5.890;2023-05-18T12:39:32;21.40;44.40
55828;DHT22;41758;51.992;5.890;2023-05-18T12:42:27;21.40;44.40
55828;DHT22;41758;51.992;5.890;2023-05-18T12:44:53;21.40;44.30
55828;DHT22;41758;51.992;5.890;2023-05-18T12:47:18;21.40;44.10
55828;DHT22;41758;51.992;5.890;2023-05-18T12:49:48;21.40;44.20
55828;DHT22;41758;51.992;5.890;2023-05-18T12:52:14;21.40;44.10
55828;DHT22;41758;51.992;5.890;2023-05-18T12:54:48;21.40;43.80
55828;DHT22;41758;51.992;5.890;2023-05-18T12:57:14;21.30;43.80
55828;DHT22;41758;51.992;5.890;2023-05-18T12:59:47;21.30;44.20
55828;DHT22;41758;51.992;5.890;2023-05-18T13:02:23;21.30;43.70
55828;DHT22;41758;51.992;5.890;2023-05-18T13:05:04;21.20;43.90
55828;DHT22;41758;51.992;5.890;2023-05-18T13:07:29;21.20;43.80
55828;DHT22;41758;51.992;5.890;2023-05-18T13:10:08;21.20;43.90
55828;DHT22;41758;51.992;5.890;2023-05-18T13:12:41;21.20;43.80
55828;DHT22;41758;51.992;5.890;2023-05-18T13:15:13;21.30;43.80
55828;DHT22;41758;51.992;5.890;2023-05-18T13:20:31;21.30;43.70
55828;DHT22;41758;51.992;5.890;2023-05-18T13:23:00;21.30;43.70
55828;DHT22;41758;51.992;5.890;2023-05-18T13:25:26;21.40;43.50
55828;DHT22;41758;51.992;5.890;2023-05-18T13:27:52;21.50;43.70
55828;DHT22;41758;51.992;5.890;2023-05-18T13:30:20;21.60;43.70
55828;DHT22;41758;51.992;5.890;2023-05-18T13:32:46;21.60;43.60
55828;DHT22;41758;51.992;5.890;2023-05-18T13:35:12;21.80;43.60
55828;DHT22;41758;51.992;5.890;2023-05-18T13:37:38;21.80;43.60
55828;DHT22;41758;51.992;5.890;2023-05-18T13:40:05;22.00;43.60
55828;DHT22;41758;51.992;5.890;2023-05-18T13:42:31;22.20;43.40
55828;DHT22;41758;51.992;5.890;2023-05-18T13:44:58;22.20;43.30
55828;DHT22;41758;51.992;5.890;2023-05-18T13:47:23;22.30;43.10
55828;DHT22;41758;51.992;5.890;2023-05-18T13:49:49;22.30;43.00
55828;DHT22;41758;51.992;5.890;2023-05-18T13:52:15;22.40;42.80
55828;DHT22;41758;51.992;5.890;2023-05-18T13:54:40;22.50;42.90
55828;DHT22;41758;51.992;5.890;2023-05-18T13:57:07;22.60;42.90
55828;DHT22;41758;51.992;5.890;2023-05-18T13:59:33;22.80;42.80
55828;DHT22;41758;51.992;5.890;2023-05-18T14:01:59;22.80;42.50
55828;DHT22;41758;51.992;5.890;2023-05-18T14:04:26;22.90;42.60
55828;DHT22;41758;51.992;5.890;2023-05-18T14:06:52;23.00;42.50
55828;DHT22;41758;51.992;5.890;2023-05-18T14:09:21;23.10;42.40
55828;DHT22;41758;51.992;5.890;2023-05-18T14:11:46;23.10;42.10
55828;DHT22;41758;51.992;5.890;2023-05-18T14:14:12;23.20;42.10
55828;DHT22;41758;51.992;5.890;2023-05-18T14:16:38;23.20;42.00
55828;DHT22;41758;51.992;5.890;2023-05-18T14:19:03;23.20;42.10
55828;DHT22;41758;51.992;5.890;2023-05-18T14:21:29;23.30;42.30
55828;DHT22;41758;51.992;5.890;2023-05-18T14:23:55;23.30;42.50
55828;DHT22;41758;51.992;5.890;2023-05-18T14:26:21;23.40;42.30
55828;DHT22;41758;51.992;5.890;2023-05-18T14:28:47;23.40;42.20
55828;DHT22;41758;51.992;5.890;2023-05-18T14:31:13;23.40;42.00
55828;DHT22;41758;51.992;5.890;2023-05-18T14:33:38;23.50;41.90
55828;DHT22;41758;51.992;5.890;2023-05-18T14:36:04;23.60;41.30
55828;DHT22;41758;51.992;5.890;2023-05-18T14:38:30;23.60;41.60
55828;DHT22;41758;51.992;5.890;2023-05-18T14:40:56;23.70;41.70
55828;DHT22;41758;51.992;5.890;2023-05-18T14:43:21;23.80;41.70
55828;DHT22;41758;51.992;5.890;2023-05-18T14:45:47;23.80;41.60
55828;DHT22;41758;51.992;5.890;2023-05-18T14:48:13;23.90;41.70
55828;DHT22;41758;51.992;5.890;2023-05-18T14:50:38;23.90;41.80
55828;DHT22;41758;51.992;5.890;2023-05-18T14:53:04;23.90;41.70
55828;DHT22;41758;51.992;5.890;2023-05-18T14:55:30;23.90;41.80
55828;DHT22;41758;51.992;5.890;2023-05-18T14:57:55;23.90;41.80
55828;DHT22;41758;51.992;5.890;2023-05-18T15:00:23;24.00;41.70
55828;DHT22;41758;51.992;5.890;2023-05-18T15:02:48;23.90;41.80
55828;DHT22;41758;51.992;5.890;2023-05-18T15:05:14;23.90;41.40
55828;DHT22;41758;51.992;5.890;2023-05-18T15:07:40;24.00;41.50
55828;DHT22;41758;51.992;5.890;2023-05-18T15:10:06;24.00;41.40
55828;DHT22;41758;51.992;5.890;2023-05-18T15:12:32;24.10;41.20
55828;DHT22;41758;51.992;5.890;2023-05-18T15:14:58;24.10;40.80
55828;DHT22;41758;51.992;5.890;2023-05-18T15:17:23;24.00;40.20
55828;DHT22;41758;51.992;5.890;2023-05-18T15:19:49;24.00;40.50
55828;DHT22;41758;51.992;5.890;2023-05-18T15:22:15;23.90;40.60
55828;DHT22;41758;51.992;5.890;2023-05-18T15:24:40;23.90;40.80
55828;DHT22;41758;51.992;5.890;2023-05-18T15:27:06;23.90;40.60
55828;DHT22;41758;51.992;5.890;2023-05-18T15:29:33;23.80;40.80
55828;DHT22;41758;51.992;5.890;2023-05-18T15:32:00;23.70;40.70
55828;DHT22;41758;51.992;5.890;2023-05-18T15:34:25;23.60;40.60
55828;DHT22;41758;51.992;5.890;2023-05-18T15:36:51;23.50;40.80
55828;DHT22;41758;51.992;5.890;2023-05-18T15:39:18;23.40;40.80
55828;DHT22;41758;51.992;5.890;2023-05-18T15:41:43;23.40;40.90
55828;DHT22;41758;51.992;5.890;2023-05-18T15:44:09;23.30;41.10
55828;DHT22;41758;51.992;5.890;2023-05-18T15:46:35;23.30;41.30
55828;DHT22;41758;51.992;5.890;2023-05-18T15:49:01;23.30;41.40
55828;DHT22;41758;51.992;5.890;2023-05-18T15:51:28;23.30;41.50
55828;DHT22;41758;51.992;5.890;2023-05-18T15:53:54;23.30;41.70
55828;DHT22;41758;51.992;5.890;2023-05-18T15:56:20;23.30;41.80
55828;DHT22;41758;51.992;5.890;2023-05-18T15:58:46;23.40;41.70